sensor_id;sensor_type;location;lat;lon;timestamp;temperature;humidity
29713;DHT22;16623;53.632;10.016;2022-08-21T00:01:49;16.20;99.90
29713;DHT22;16623;53.632;10.016;2022-08-21T00:04:14;16.10;99.90
29713;DHT22;16623;53.632;10.016;2022-08-21T00:06:40;16.20;99.90
29713;DHT22;16623;53.632;10.016;2022-08-21T00:09:08;16.20;99.90
29713;DHT22;16623;53.632;10.016;2022-08-21T00:11:35;16.10;99.90
29713;DHT22;16623;53.632;10.016;2022-08-21T00:14:02;16.10;99.90
29713;DHT22;16623;53.632;10.016;2022-08-21T00:16:27;16.00;99.90
29713;DHT22;16623;53.632;10.016;2022-08-21T00:18:53;16.10;99.90
29713;DHT22;16623;53.632;10.016;2022-08-21T00:21:18;16.00;99.90
29713;DHT22;16623;53.632;10.016;2022-08-21T00:23:44;16.00;99.90
29713;DHT22;16623;53.632;10.016;2022-08-21T00:26:10;16.00;99.90
29713;DHT22;16623;53.632;10.016;2022-08-21T00:28:35;15.90;99.90
29713;DHT22;16623;53.632;10.016;2022-08-21T00:31:01;15.90;99.90
29713;DHT22;16623;53.632;10.016;2022-08-21T00:33:29;15.90;99.90
29713;DHT22;16623;53.632;10.016;2022-08-21T00:35:56;15.70;99.90
29713;DHT22;16623;53.632;10.016;2022-08-21T00:38:22;15.80;99.90
29713;DHT22;16623;53.632;10.016;2022-08-21T00:40:55;15.70;99.90
29713;DHT22;16623;53.632;10.016;2022-08-21T00:43:24;15.80;99.90
29713;DHT22;16623;53.632;10.016;2022-08-21T00:45:50;15.70;99.90
29713;DHT22;16623;53.632;10.016;2022-08-21T00:48:16;15.70;99.90
29713;DHT22;16623;53.632;10.016;2022-08-21T00:50:46;15.70;99.90
29713;DHT22;16623;53.632;10.016;2022-08-21T00:53:13;15.80;99.90
29713;DHT22;16623;53.632;10.016;2022-08-21T00:55:40;15.70;99.90
29713;DHT22;16623;53.632;10.016;2022-08-21T00:58:08;15.70;99.90
29713;DHT22;16623;53.632;10.016;2022-08-21T01:00:37;15.70;99.90
29713;DHT22;16623;53.632;10.016;2022-08-21T01:03:08;15.70;99.90
29713;DHT22;16623;53.632;10.016;2022-08-21T01:05:34;15.70;99.90
29713;DHT22;16623;53.632;10.016;2022-08-21T01:08:00;15.60;99.90
29713;DHT22;16623;53.632;10.016;2022-08-21T01:10:26;15.60;99.90
29713;DHT22;16623;53.632;10.016;2022-08-21T01:12:53;15.60;99.90
29713;DHT22;16623;53.632;10.016;2022-08-21T01:15:23;15.60;99.90
29713;DHT22;16623;53.632;10.016;2022-08-21T01:17:50;15.60;99.90
29713;DHT22;16623;53.632;10.016;2022-08-21T01:20:16;15.60;99.90
29713;DHT22;16623;53.632;10.016;2022-08-21T01:22:42;15.60;99.90
29713;DHT22;16623;53.632;10.016;2022-08-21T01:25:09;15.50;99.90
29713;DHT22;16623;53.632;10.016;2022-08-21T01:27:35;15.60;99.90
29713;DHT22;16623;53.632;10.016;2022-08-21T01:30:08;15.50;99.90
29713;DHT22;16623;53.632;10.016;2022-08-21T01:32:34;15.40;99.90
29713;DHT22;16623;53.632;10.016;2022-08-21T01:34:59;15.30;99.90
29713;DHT22;16623;53.632;10.016;2022-08-21T01:37:25;15.30;99.90
29713;DHT22;16623;53.632;10.016;2022-08-21T01:39:50;15.40;99.90
29713;DHT22;16623;53.632;10.016;2022-08-21T01:42:16;15.40;99.90
29713;DHT22;16623;53.632;10.016;2022-08-21T01:44:42;15.30;99.90
29713;DHT22;16623;53.632;10.016;2022-08-21T01:47:11;15.30;99.90
29713;DHT22;16623;53.632;10.016;2022-08-21T01:49:37;15.30;99.90
29713;DHT22;16623;53.632;10.016;2022-08-21T01:52:04;15.20;99.90
29713;DHT22;16623;53.632;10.016;2022-08-21T01:54:31;15.20;99.90
29713;DHT22;16623;53.632;10.016;2022-08-21T01:56:58;15.20;99.90
29713;DHT22;16623;53.632;10.016;2022-08-21T01:59:25;15.20;99.90
29713;DHT22;16623;53.632;10.016;2022-08-21T02:01:51;15.20;99.90
29713;DHT22;16623;53.632;10.016;2022-08-21T02:04:19;15.10;99.90
29713;DHT22;16623;53.632;10.016;2022-08-21T02:06:45;15.10;99.90
29713;DHT22;16623;53.632;10.016;2022-08-21T02:09:12;15.10;99.90
29713;DHT22;16623;53.632;10.016;2022-08-21T02:11:38;15.20;99.90
29713;DHT22;16623;53.632;10.016;2022-08-21T02:14:09;15.10;99.90
29713;DHT22;16623;53.632;10.016;2022-08-21T02:16:37;15.00;99.90
29713;DHT22;16623;53.632;10.016;2022-08-21T02:19:03;15.10;99.90
29713;DHT22;16623;53.632;10.016;2022-08-21T02:21:29;15.10;99.90
29713;DHT22;16623;53.632;10.016;2022-08-21T02:23:55;15.10;99.90
29713;DHT22;16623;53.632;10.016;2022-08-21T02:26:20;15.20;99.90
29713;DHT22;16623;53.632;10.016;2022-08-21T02:28:46;15.10;99.90
29713;DHT22;16623;53.632;10.016;2022-08-21T02:31:11;15.20;99.90
29713;DHT22;16623;53.632;10.016;2022-08-21T02:33:38;15.10;99.90
29713;DHT22;16623;53.632;10.016;2022-08-21T02:36:05;15.10;99.90
29713;DHT22;16623;53.632;10.016;2022-08-21T02:38:32;15.00;99.90
29713;DHT22;16623;53.632;10.016;2022-08-21T02:41:20;14.90;99.90
29713;DHT22;16623;53.632;10.016;2022-08-21T02:43:46;14.80;99.90
29713;DHT22;16623;53.632;10.016;2022-08-21T02:46:14;14.80;99.90
29713;DHT22;16623;53.632;10.016;2022-08-21T02:48:40;14.60;99.90
29713;DHT22;16623;53.632;10.016;2022-08-21T02:51:11;14.70;99.90
29713;DHT22;16623;53.632;10.016;2022-08-21T02:53:37;14.60;99.90
29713;DHT22;16623;53.632;10.016;2022-08-21T02:56:05;14.60;99.90
29713;DHT22;16623;53.632;10.016;2022-08-21T02:58:34;14.50;99.90
29713;DHT22;16623;53.632;10.016;2022-08-21T03:01:01;14.60;99.90
29713;DHT22;16623;53.632;10.016;2022-08-21T03:03:27;14.60;99.90
29713;DHT22;16623;53.632;10.016;2022-08-21T03:05:53;14.60;99.90
29713;DHT22;16623;53.632;10.016;2022-08-21T03:08:20;14.60;99.90
29713;DHT22;16623;53.632;10.016;2022-08-21T03:10:49;14.60;99.90
29713;DHT22;16623;53.632;10.016;2022-08-21T03:13:16;14.60;99.90
29713;DHT22;16623;53.632;10.016;2022-08-21T03:15:42;14.50;99.90
29713;DHT22;16623;53.632;10.016;2022-08-21T03:18:09;14.70;99.90
29713;DHT22;16623;53.632;10.016;2022-08-21T03:20:36;14.80;99.90
29713;DHT22;16623;53.632;10.016;2022-08-21T03:23:04;14.70;99.90
29713;DHT22;16623;53.632;10.016;2022-08-21T03:25:30;14.70;99.90
29713;DHT22;16623;53.632;10.016;2022-08-21T03:27:58;14.60;99.90
29713;DHT22;16623;53.632;10.016;2022-08-21T03:30:24;14.60;99.90
29713;DHT22;16623;53.632;10.016;2022-08-21T03:32:50;14.60;99.90
29713;DHT22;16623;53.632;10.016;2022-08-21T03:35:16;14.50;99.90
29713;DHT22;16623;53.632;10.016;2022-08-21T03:37:42;14.50;99.90
29713;DHT22;16623;53.632;10.016;2022-08-21T03:40:13;14.50;99.90
29713;DHT22;16623;53.632;10.016;2022-08-21T03:42:39;14.50;99.90
29713;DHT22;16623;53.632;10.016;2022-08-21T03:45:06;14.50;99.90
29713;DHT22;16623;53.632;10.016;2022-08-21T03:47:32;14.50;99.90
29713;DHT22;16623;53.632;10.016;2022-08-21T03:49:57;14.40;99.90
29713;DHT22;16623;53.632;10.016;2022-08-21T03:52:23;14.50;99.90
29713;DHT22;16623;53.632;10.016;2022-08-21T03:54:49;14.50;99.90
29713;DHT22;16623;53.632;10.016;2022-08-21T03:57:16;14.50;99.90
29713;DHT22;16623;53.632;10.016;2022-08-21T03:59:42;14.50;99.90
29713;DHT22;16623;53.632;10.016;2022-08-21T04:02:09;14.40;99.90
29713;DHT22;16623;53.632;10.016;2022-08-21T04:04:35;14.30;99.90
29713;DHT22;16623;53.632;10.016;2022-08-21T04:07:00;14.30;99.90
29713;DHT22;16623;53.632;10.016;2022-08-21T04:09:26;14.30;99.90
29713;DHT22;16623;53.632;10.016;2022-08-21T04:11:52;14.20;99.90
29713;DHT22;16623;53.632;10.016;2022-08-21T04:14:18;14.20;99.90
29713;DHT22;16623;53.632;10.016;2022-08-21T04:16:44;14.20;99.90
29713;DHT22;16623;53.632;10.016;2022-08-21T04:19:10;14.20;99.90
29713;DHT22;16623;53.632;10.016;2022-08-21T04:21:37;14.30;99.90
29713;DHT22;16623;53.632;10.016;2022-08-21T04:24:04;14.20;99.90
29713;DHT22;16623;53.632;10.016;2022-08-21T04:26:30;14.30;99.90
29713;DHT22;16623;53.632;10.016;2022-08-21T04:28:57;14.30;99.90
29713;DHT22;16623;53.632;10.016;2022-08-21T04:31:23;14.30;99.90
29713;DHT22;16623;53.632;10.016;2022-08-21T04:33:49;14.30;99.90
29713;DHT22;16623;53.632;10.016;2022-08-21T04:36:15;14.40;99.90
29713;DHT22;16623;53.632;10.016;2022-08-21T04:38:41;14.50;99.90
29713;DHT22;16623;53.632;10.016;2022-08-21T04:41:06;14.60;99.90
29713;DHT22;16623;53.632;10.016;2022-08-21T04:43:32;14.50;99.90
29713;DHT22;16623;53.632;10.016;2022-08-21T04:45:58;14.50;99.90
29713;DHT22;16623;53.632;10.016;2022-08-21T04:48:25;14.40;99.90
29713;DHT22;16623;53.632;10.016;2022-08-21T04:51:02;14.40;99.90
29713;DHT22;16623;53.632;10.016;2022-08-21T04:53:36;14.40;99.90
29713;DHT22;16623;53.632;10.016;2022-08-21T04:56:04;14.50;99.90
29713;DHT22;16623;53.632;10.016;2022-08-21T04:58:34;14.70;99.90
29713;DHT22;16623;53.632;10.016;2022-08-21T05:01:00;14.90;99.90
29713;DHT22;16623;53.632;10.016;2022-08-21T05:03:27;15.00;99.90
29713;DHT22;16623;53.632;10.016;2022-08-21T05:05:53;15.10;99.90
29713;DHT22;16623;53.632;10.016;2022-08-21T05:08:21;15.10;99.90
29713;DHT22;16623;53.632;10.016;2022-08-21T05:10:48;15.10;99.90
29713;DHT22;16623;53.632;10.016;2022-08-21T05:13:15;15.20;99.90
29713;DHT22;16623;53.632;10.016;2022-08-21T05:15:41;15.20;99.90
29713;DHT22;16623;53.632;10.016;2022-08-21T05:18:07;15.30;99.90
29713;DHT22;16623;53.632;10.016;2022-08-21T05:20:34;15.50;99.90
29713;DHT22;16623;53.632;10.016;2022-08-21T05:23:00;15.50;99.90
29713;DHT22;16623;53.632;10.016;2022-08-21T05:25:26;15.50;99.90
29713;DHT22;16623;53.632;10.016;2022-08-21T05:27:53;15.50;99.90
29713;DHT22;16623;53.632;10.016;2022-08-21T05:30:19;15.60;99.90
29713;DHT22;16623;53.632;10.016;2022-08-21T05:32:45;15.70;99.90
29713;DHT22;16623;53.632;10.016;2022-08-21T05:35:11;15.90;99.90
29713;DHT22;16623;53.632;10.016;2022-08-21T05:37:36;15.90;99.90
29713;DHT22;16623;53.632;10.016;2022-08-21T05:40:03;16.10;99.90
29713;DHT22;16623;53.632;10.016;2022-08-21T05:42:29;16.20;99.90
29713;DHT22;16623;53.632;10.016;2022-08-21T05:44:54;16.20;99.90
29713;DHT22;16623;53.632;10.016;2022-08-21T05:47:20;16.30;99.90
29713;DHT22;16623;53.632;10.016;2022-08-21T05:49:46;16.40;99.90
29713;DHT22;16623;53.632;10.016;2022-08-21T05:52:11;16.50;99.90
29713;DHT22;16623;53.632;10.016;2022-08-21T05:54:38;16.60;99.90
29713;DHT22;16623;53.632;10.016;2022-08-21T05:57:04;16.60;99.90
29713;DHT22;16623;53.632;10.016;2022-08-21T05:59:29;16.60;99.90
29713;DHT22;16623;53.632;10.016;2022-08-21T06:01:55;16.60;99.90
29713;DHT22;16623;53.632;10.016;2022-08-21T06:04:20;16.70;99.90
29713;DHT22;16623;53.632;10.016;2022-08-21T06:06:46;16.70;99.90
29713;DHT22;16623;53.632;10.016;2022-08-21T06:09:13;16.80;99.90
29713;DHT22;16623;53.632;10.016;2022-08-21T06:11:38;16.70;99.90
29713;DHT22;16623;53.632;10.016;2022-08-21T06:14:04;16.70;99.90
29713;DHT22;16623;53.632;10.016;2022-08-21T06:16:31;16.60;99.90
29713;DHT22;16623;53.632;10.016;2022-08-21T06:18:57;16.70;99.90
29713;DHT22;16623;53.632;10.016;2022-08-21T06:21:23;16.70;99.90
29713;DHT22;16623;53.632;10.016;2022-08-21T06:23:48;16.80;99.90
29713;DHT22;16623;53.632;10.016;2022-08-21T06:26:15;16.90;99.90
29713;DHT22;16623;53.632;10.016;2022-08-21T06:28:41;17.00;99.90
29713;DHT22;16623;53.632;10.016;2022-08-21T06:31:20;17.10;99.90
29713;DHT22;16623;53.632;10.016;2022-08-21T06:33:45;17.10;99.90
29713;DHT22;16623;53.632;10.016;2022-08-21T06:36:11;17.10;99.90
29713;DHT22;16623;53.632;10.016;2022-08-21T06:38:38;17.20;99.90
29713;DHT22;16623;53.632;10.016;2022-08-21T06:41:04;17.30;99.90
29713;DHT22;16623;53.632;10.016;2022-08-21T06:43:30;17.40;99.90
29713;DHT22;16623;53.632;10.016;2022-08-21T06:45:56;17.50;99.90
29713;DHT22;16623;53.632;10.016;2022-08-21T06:48:21;17.60;99.90
29713;DHT22;16623;53.632;10.016;2022-08-21T06:50:48;17.70;99.90
29713;DHT22;16623;53.632;10.016;2022-08-21T06:53:15;17.70;99.90
29713;DHT22;16623;53.632;10.016;2022-08-21T06:55:41;17.60;99.90
29713;DHT22;16623;53.632;10.016;2022-08-21T06:58:08;17.70;99.90
29713;DHT22;16623;53.632;10.016;2022-08-21T07:00:34;17.60;99.90
29713;DHT22;16623;53.632;10.016;2022-08-21T07:03:00;17.60;99.90
29713;DHT22;16623;53.632;10.016;2022-08-21T07:05:28;17.70;99.90
29713;DHT22;16623;53.632;10.016;2022-08-21T07:07:53;17.70;99.90
29713;DHT22;16623;53.632;10.016;2022-08-21T07:10:19;17.70;99.90
29713;DHT22;16623;53.632;10.016;2022-08-21T07:12:45;17.80;99.90
29713;DHT22;16623;53.632;10.016;2022-08-21T07:15:10;17.90;99.90
29713;DHT22;16623;53.632;10.016;2022-08-21T07:17:36;17.90;99.90
29713;DHT22;16623;53.632;10.016;2022-08-21T07:20:03;18.10;99.90
29713;DHT22;16623;53.632;10.016;2022-08-21T07:22:29;18.20;99.90
29713;DHT22;16623;53.632;10.016;2022-08-21T07:24:55;18.30;99.90
29713;DHT22;16623;53.632;10.016;2022-08-21T07:27:20;18.40;99.90
29713;DHT22;16623;53.632;10.016;2022-08-21T07:29:46;18.50;99.90
29713;DHT22;16623;53.632;10.016;2022-08-21T07:32:11;18.60;99.90
29713;DHT22;16623;53.632;10.016;2022-08-21T07:34:37;18.60;99.90
29713;DHT22;16623;53.632;10.016;2022-08-21T07:37:03;18.60;99.90
29713;DHT22;16623;53.632;10.016;2022-08-21T07:39:28;18.80;99.90
29713;DHT22;16623;53.632;10.016;2022-08-21T07:41:54;18.90;99.90
29713;DHT22;16623;53.632;10.016;2022-08-21T07:44:20;19.00;99.90
29713;DHT22;16623;53.632;10.016;2022-08-21T07:46:45;19.20;99.90
29713;DHT22;16623;53.632;10.016;2022-08-21T07:49:11;19.40;99.90
29713;DHT22;16623;53.632;10.016;2022-08-21T07:51:37;19.70;99.90
29713;DHT22;16623;53.632;10.016;2022-08-21T07:54:02;19.80;99.90
29713;DHT22;16623;53.632;10.016;2022-08-21T07:56:30;19.90;99.90
29713;DHT22;16623;53.632;10.016;2022-08-21T07:58:56;19.90;99.90
29713;DHT22;16623;53.632;10.016;2022-08-21T08:01:23;20.00;99.90
29713;DHT22;16623;53.632;10.016;2022-08-21T08:03:49;20.10;99.90
29713;DHT22;16623;53.632;10.016;2022-08-21T08:06:15;20.20;99.90
29713;DHT22;16623;53.632;10.016;2022-08-21T08:08:44;20.40;99.90
29713;DHT22;16623;53.632;10.016;2022-08-21T08:11:11;20.40;99.90
29713;DHT22;16623;53.632;10.016;2022-08-21T08:13:42;20.50;99.90
29713;DHT22;16623;53.632;10.016;2022-08-21T08:16:08;20.70;99.90
29713;DHT22;16623;53.632;10.016;2022-08-21T08:18:38;20.70;99.90
29713;DHT22;16623;53.632;10.016;2022-08-21T08:21:05;20.80;99.90
29713;DHT22;16623;53.632;10.016;2022-08-21T08:23:31;20.90;99.90
29713;DHT22;16623;53.632;10.016;2022-08-21T08:25:58;21.00;99.90
29713;DHT22;16623;53.632;10.016;2022-08-21T08:28:24;21.10;99.90
29713;DHT22;16623;53.632;10.016;2022-08-21T08:30:50;21.10;99.90
29713;DHT22;16623;53.632;10.016;2022-08-21T08:33:16;21.10;99.90
29713;DHT22;16623;53.632;10.016;2022-08-21T08:35:45;21.20;99.90
29713;DHT22;16623;53.632;10.016;2022-08-21T08:38:11;21.20;99.90
29713;DHT22;16623;53.632;10.016;2022-08-21T08:40:47;21.30;99.90
29713;DHT22;16623;53.632;10.016;2022-08-21T08:43:16;21.30;99.90
29713;DHT22;16623;53.632;10.016;2022-08-21T08:45:46;21.40;99.90
29713;DHT22;16623;53.632;10.016;2022-08-21T08:48:17;21.50;99.90
29713;DHT22;16623;53.632;10.016;2022-08-21T08:50:54;21.50;99.90
29713;DHT22;16623;53.632;10.016;2022-08-21T08:53:30;21.60;99.90
29713;DHT22;16623;53.632;10.016;2022-08-21T08:55:57;21.60;99.90
29713;DHT22;16623;53.632;10.016;2022-08-21T08:58:30;21.70;99.90
29713;DHT22;16623;53.632;10.016;2022-08-21T09:00:56;21.60;99.90
29713;DHT22;16623;53.632;10.016;2022-08-21T09:03:24;21.70;99.90
29713;DHT22;16623;53.632;10.016;2022-08-21T09:06:18;21.80;99.90
29713;DHT22;16623;53.632;10.016;2022-08-21T09:09:02;21.90;99.90
29713;DHT22;16623;53.632;10.016;2022-08-21T09:11:46;21.90;99.90
29713;DHT22;16623;53.632;10.016;2022-08-21T09:14:21;22.10;99.90
29713;DHT22;16623;53.632;10.016;2022-08-21T09:22:12;22.10;99.90
29713;DHT22;16623;53.632;10.016;2022-08-21T09:24:59;22.20;99.90
29713;DHT22;16623;53.632;10.016;2022-08-21T09:27:28;22.20;99.90
29713;DHT22;16623;53.632;10.016;2022-08-21T09:29:55;22.20;99.90
29713;DHT22;16623;53.632;10.016;2022-08-21T09:32:31;22.30;99.90
29713;DHT22;16623;53.632;10.016;2022-08-21T09:35:19;22.40;99.90
29713;DHT22;16623;53.632;10.016;2022-08-21T09:38:04;22.50;99.90
29713;DHT22;16623;53.632;10.016;2022-08-21T09:43:20;22.40;99.90
29713;DHT22;16623;53.632;10.016;2022-08-21T09:45:47;22.50;99.90
29713;DHT22;16623;53.632;10.016;2022-08-21T09:48:21;22.70;99.90
29713;DHT22;16623;53.632;10.016;2022-08-21T09:50:48;22.90;99.90
29713;DHT22;16623;53.632;10.016;2022-08-21T09:53:28;23.00;99.90
29713;DHT22;16623;53.632;10.016;2022-08-21T09:56:04;23.10;99.90
29713;DHT22;16623;53.632;10.016;2022-08-21T09:58:51;23.10;99.90
29713;DHT22;16623;53.632;10.016;2022-08-21T10:01:22;23.00;99.90
29713;DHT22;16623;53.632;10.016;2022-08-21T10:04:01;22.90;99.90
29713;DHT22;16623;53.632;10.016;2022-08-21T10:06:28;22.90;99.90
29713;DHT22;16623;53.632;10.016;2022-08-21T10:09:09;23.20;99.90
29713;DHT22;16623;53.632;10.016;2022-08-21T10:11:35;23.50;99.90
29713;DHT22;16623;53.632;10.016;2022-08-21T10:14:07;23.80;99.90
29713;DHT22;16623;53.632;10.016;2022-08-21T10:19:41;23.90;99.90
29713;DHT22;16623;53.632;10.016;2022-08-21T10:22:21;24.40;99.90
29713;DHT22;16623;53.632;10.016;2022-08-21T10:25:18;24.80;99.90
29713;DHT22;16623;53.632;10.016;2022-08-21T10:28:07;25.40;99.90
29713;DHT22;16623;53.632;10.016;2022-08-21T10:30:54;25.90;99.90
29713;DHT22;16623;53.632;10.016;2022-08-21T10:34:01;26.60;98.90
29713;DHT22;16623;53.632;10.016;2022-08-21T10:36:42;26.50;97.00
29713;DHT22;16623;53.632;10.016;2022-08-21T10:42:28;26.90;95.60
29713;DHT22;16623;53.632;10.016;2022-08-21T10:45:52;27.50;94.20
29713;DHT22;16623;53.632;10.016;2022-08-21T10:48:05;27.60;94.00
29713;DHT22;16623;53.632;10.016;2022-08-21T10:55:56;27.30;90.00
29713;DHT22;16623;53.632;10.016;2022-08-21T10:58:33;27.60;90.80
29713;DHT22;16623;53.632;10.016;2022-08-21T11:01:11;27.60;90.30
29713;DHT22;16623;53.632;10.016;2022-08-21T11:03:46;27.20;90.00
29713;DHT22;16623;53.632;10.016;2022-08-21T11:06:18;26.80;89.60
29713;DHT22;16623;53.632;10.016;2022-08-21T11:08:48;26.30;90.80
29713;DHT22;16623;53.632;10.016;2022-08-21T11:11:27;25.90;91.50
29713;DHT22;16623;53.632;10.016;2022-08-21T11:14:01;25.60;91.00
29713;DHT22;16623;53.632;10.016;2022-08-21T11:16:46;25.60;91.70
29713;DHT22;16623;53.632;10.016;2022-08-21T11:19:35;25.30;91.30
29713;DHT22;16623;53.632;10.016;2022-08-21T11:22:22;25.50;91.90
29713;DHT22;16623;53.632;10.016;2022-08-21T11:25:50;25.40;92.30
29713;DHT22;16623;53.632;10.016;2022-08-21T11:27:54;25.30;91.30
29713;DHT22;16623;53.632;10.016;2022-08-21T11:30:24;25.20;91.50
29713;DHT22;16623;53.632;10.016;2022-08-21T11:32:56;25.00;91.30
29713;DHT22;16623;53.632;10.016;2022-08-21T11:43:48;24.50;91.60
29713;DHT22;16623;53.632;10.016;2022-08-21T11:46:53;24.70;91.50
29713;DHT22;16623;53.632;10.016;2022-08-21T11:49:47;24.70;91.10
29713;DHT22;16623;53.632;10.016;2022-08-21T11:52:34;24.80;91.90
29713;DHT22;16623;53.632;10.016;2022-08-21T11:55:22;24.90;92.20
29713;DHT22;16623;53.632;10.016;2022-08-21T11:57:57;25.00;92.00
29713;DHT22;16623;53.632;10.016;2022-08-21T12:00:31;25.10;91.30
29713;DHT22;16623;53.632;10.016;2022-08-21T12:03:06;25.20;90.70
29713;DHT22;16623;53.632;10.016;2022-08-21T12:05:38;25.20;90.40
29713;DHT22;16623;53.632;10.016;2022-08-21T12:08:30;25.20;90.90
29713;DHT22;16623;53.632;10.016;2022-08-21T12:11:05;25.10;90.80
29713;DHT22;16623;53.632;10.016;2022-08-21T12:13:34;24.90;90.70
29713;DHT22;16623;53.632;10.016;2022-08-21T12:16:14;24.80;90.50
29713;DHT22;16623;53.632;10.016;2022-08-21T12:18:40;24.70;90.60
29713;DHT22;16623;53.632;10.016;2022-08-21T12:21:23;24.60;91.00
29713;DHT22;16623;53.632;10.016;2022-08-21T12:24:02;24.70;91.40
29713;DHT22;16623;53.632;10.016;2022-08-21T12:26:32;24.80;90.10
29713;DHT22;16623;53.632;10.016;2022-08-21T12:29:33;24.90;89.60
29713;DHT22;16623;53.632;10.016;2022-08-21T12:35:02;25.20;90.30
29713;DHT22;16623;53.632;10.016;2022-08-21T12:40:02;25.40;90.10
29713;DHT22;16623;53.632;10.016;2022-08-21T12:42:47;25.40;90.20
29713;DHT22;16623;53.632;10.016;2022-08-21T12:45:30;25.20;89.90
29713;DHT22;16623;53.632;10.016;2022-08-21T12:48:06;25.00;90.20
29713;DHT22;16623;53.632;10.016;2022-08-21T12:50:38;24.90;91.10
29713;DHT22;16623;53.632;10.016;2022-08-21T12:53:50;24.90;91.00
29713;DHT22;16623;53.632;10.016;2022-08-21T12:55:57;24.90;90.90
29713;DHT22;16623;53.632;10.016;2022-08-21T12:58:29;24.80;91.10
29713;DHT22;16623;53.632;10.016;2022-08-21T13:03:58;24.50;91.70
29713;DHT22;16623;53.632;10.016;2022-08-21T13:06:25;24.40;91.70
29713;DHT22;16623;53.632;10.016;2022-08-21T13:08:57;24.40;91.50
29713;DHT22;16623;53.632;10.016;2022-08-21T13:11:24;24.60;91.30
29713;DHT22;16623;53.632;10.016;2022-08-21T13:13:51;24.80;91.00
29713;DHT22;16623;53.632;10.016;2022-08-21T13:16:26;24.90;91.20
29713;DHT22;16623;53.632;10.016;2022-08-21T13:19:07;25.20;90.70
29713;DHT22;16623;53.632;10.016;2022-08-21T13:21:39;25.30;85.10
29713;DHT22;16623;53.632;10.016;2022-08-21T13:24:20;25.30;86.60
29713;DHT22;16623;53.632;10.016;2022-08-21T13:26:47;25.10;88.60
29713;DHT22;16623;53.632;10.016;2022-08-21T13:29:16;24.90;88.90
29713;DHT22;16623;53.632;10.016;2022-08-21T13:31:48;24.70;89.60
29713;DHT22;16623;53.632;10.016;2022-08-21T13:34:15;24.60;90.00
29713;DHT22;16623;53.632;10.016;2022-08-21T13:36:43;24.50;90.00
29713;DHT22;16623;53.632;10.016;2022-08-21T13:39:12;24.60;89.50
29713;DHT22;16623;53.632;10.016;2022-08-21T13:41:40;24.80;90.10
29713;DHT22;16623;53.632;10.016;2022-08-21T13:44:19;25.00;88.10
29713;DHT22;16623;53.632;10.016;2022-08-21T13:46:48;25.30;87.00
29713;DHT22;16623;53.632;10.016;2022-08-21T13:49:16;25.50;86.80
29713;DHT22;16623;53.632;10.016;2022-08-21T13:51:42;25.70;85.40
29713;DHT22;16623;53.632;10.016;2022-08-21T13:54:38;25.90;86.00
29713;DHT22;16623;53.632;10.016;2022-08-21T13:57:16;25.90;86.60
29713;DHT22;16623;53.632;10.016;2022-08-21T13:59:42;26.00;85.90
29713;DHT22;16623;53.632;10.016;2022-08-21T14:02:15;26.10;83.20
29713;DHT22;16623;53.632;10.016;2022-08-21T14:04:55;26.10;82.30
29713;DHT22;16623;53.632;10.016;2022-08-21T14:07:29;26.10;83.90
29713;DHT22;16623;53.632;10.016;2022-08-21T14:09:56;25.90;83.00
29713;DHT22;16623;53.632;10.016;2022-08-21T14:12:29;25.90;81.90
29713;DHT22;16623;53.632;10.016;2022-08-21T14:14:57;25.80;82.90
29713;DHT22;16623;53.632;10.016;2022-08-21T14:17:33;25.80;83.50
29713;DHT22;16623;53.632;10.016;2022-08-21T14:20:01;25.80;83.20
29713;DHT22;16623;53.632;10.016;2022-08-21T14:22:31;25.80;84.00
29713;DHT22;16623;53.632;10.016;2022-08-21T14:27:38;25.80;83.50
29713;DHT22;16623;53.632;10.016;2022-08-21T14:30:11;25.80;82.50
29713;DHT22;16623;53.632;10.016;2022-08-21T14:32:40;25.80;82.70
29713;DHT22;16623;53.632;10.016;2022-08-21T14:35:06;25.80;81.50
29713;DHT22;16623;53.632;10.016;2022-08-21T14:37:32;25.60;80.70
29713;DHT22;16623;53.632;10.016;2022-08-21T14:39:58;25.70;81.50
29713;DHT22;16623;53.632;10.016;2022-08-21T14:42:24;25.70;81.90
29713;DHT22;16623;53.632;10.016;2022-08-21T14:44:50;25.60;82.70
29713;DHT22;16623;53.632;10.016;2022-08-21T14:47:16;25.60;83.50
29713;DHT22;16623;53.632;10.016;2022-08-21T14:49:41;25.70;83.10
29713;DHT22;16623;53.632;10.016;2022-08-21T14:52:08;25.70;82.20
29713;DHT22;16623;53.632;10.016;2022-08-21T14:54:33;25.60;82.40
29713;DHT22;16623;53.632;10.016;2022-08-21T14:57:03;25.60;83.30
29713;DHT22;16623;53.632;10.016;2022-08-21T14:59:30;25.40;83.80
29713;DHT22;16623;53.632;10.016;2022-08-21T15:01:58;25.30;84.50
29713;DHT22;16623;53.632;10.016;2022-08-21T15:04:23;25.10;84.50
29713;DHT22;16623;53.632;10.016;2022-08-21T15:06:49;25.10;85.10
29713;DHT22;16623;53.632;10.016;2022-08-21T15:09:14;25.00;85.50
29713;DHT22;16623;53.632;10.016;2022-08-21T15:11:40;25.00;84.80
29713;DHT22;16623;53.632;10.016;2022-08-21T15:14:08;25.10;86.00
29713;DHT22;16623;53.632;10.016;2022-08-21T15:16:37;25.20;85.30
29713;DHT22;16623;53.632;10.016;2022-08-21T15:19:02;25.20;86.00
29713;DHT22;16623;53.632;10.016;2022-08-21T15:21:28;25.20;85.40
29713;DHT22;16623;53.632;10.016;2022-08-21T15:23:53;25.30;85.30
29713;DHT22;16623;53.632;10.016;2022-08-21T15:26:21;25.40;85.90
29713;DHT22;16623;53.632;10.016;2022-08-21T15:28:47;25.30;85.10
29713;DHT22;16623;53.632;10.016;2022-08-21T15:31:13;25.30;85.80
29713;DHT22;16623;53.632;10.016;2022-08-21T15:33:38;25.40;85.80
29713;DHT22;16623;53.632;10.016;2022-08-21T15:36:04;25.30;85.80
29713;DHT22;16623;53.632;10.016;2022-08-21T15:38:30;25.10;86.50
29713;DHT22;16623;53.632;10.016;2022-08-21T15:40:55;25.10;87.10
29713;DHT22;16623;53.632;10.016;2022-08-21T15:43:31;25.00;86.50
29713;DHT22;16623;53.632;10.016;2022-08-21T15:45:59;25.00;87.00
29713;DHT22;16623;53.632;10.016;2022-08-21T15:48:24;25.00;86.40
29713;DHT22;16623;53.632;10.016;2022-08-21T15:50:50;24.80;87.40
29713;DHT22;16623;53.632;10.016;2022-08-21T15:53:16;24.80;87.60
29713;DHT22;16623;53.632;10.016;2022-08-21T15:55:41;24.80;86.70
29713;DHT22;16623;53.632;10.016;2022-08-21T15:58:07;24.80;86.50
29713;DHT22;16623;53.632;10.016;2022-08-21T16:00:36;24.80;86.70
29713;DHT22;16623;53.632;10.016;2022-08-21T16:03:04;24.60;86.40
29713;DHT22;16623;53.632;10.016;2022-08-21T16:05:31;24.60;87.20
29713;DHT22;16623;53.632;10.016;2022-08-21T16:07:57;24.50;87.60
29713;DHT22;16623;53.632;10.016;2022-08-21T16:10:23;24.60;87.70